Afton, OK

10:24 AM CDT on October 22, 2014 (GMT -0500)
Grove Municipal | Change Station
CLOSE
Current Station
Airport
Location: Grove,
Elevation: 833 ft
Nearby Weather Stations

Elev 833 ft 36.60 °N, 94.74 °W | Updated 9 minutes ago

Partly Cloudy
Partly Cloudy
64 °F
Feels Like 64 °F
N
7
Wind Variable Wind from East

Today
High -- | Low -- °F
--% Chance of Precip.
Yesterday
High -- | Low -- °F
Precip. -- in
7:33 AM 6:34 PM
Waning Crescent, 2% visible
Pressure 30.22 in
Visibility 10.0 miles
Clouds Scattered Clouds 6000 ft
Dew Point 54 °F
Humidity 68%
Rainfall 0.00 in
Snow Depth Not available.
UV 2 out of 12
Pollen 4.20 out of 12
Air Quality Not available.
Flu Activity No Activity
METAR KGMJ 221515Z AUTO 09006KT 10SM SCT060 18/12 A3022 RMK AO2

More Conditions Fewer Conditions

Pressure 30.22 in
Visibility 10.0 miles
Clouds Scattered Clouds 6000 ft
Dew Point 54 °F
Humidity 68%
Rainfall 0.00 in
Snow Depth Not available.
UV 2 out of 12
Pollen 4.20 out of 12
Air Quality Not available.
Flu Activity No Activity
METAR KGMJ 221515Z AUTO 09006KT 10SM SCT060 18/12 A3022 RMK AO2

More Conditions Fewer Conditions

10-Day Weather Forecast

Almanac

Astronomy

Oct. 22, 2014 Rise Set
Actual Time 7:33 AM CDT 6:34 PM CDT
Civil Twilight 7:07 AM CDT 7:00 PM CDT
Nautical Twilight 6:36 AM CDT 7:30 PM CDT
Astronomical Twilight 6:06 AM CDT 8:00 PM CDT
Moon 6:17 AM CDT 5:59 PM CDT
Length of Visible Light 11h 53m
Length of Day
11h 00m
Tomorrow will be 2m 11s shorter.
Waning Crescent, 2% of the Moon is Illuminated
Today
Waning Crescent
Oct 23
New
Oct 30
First Quarter
Nov 6
Full
Nov 14
Last Quarter

Today's Extremes

State Highs State Lows

Community

WunderPhotos

Upload Photos

1,763,949 photos uploaded!

Nearby

Snow Depth

Station Depth Elevation
No new snow has been reported.

Earthquake Activity

City Distance Mag. Time & Date
Boley, Oklahoma 126 miles 3.5 3:34 PM CDT
2014-10-20
Cushing, Oklahoma 116 miles 2.8 11:41 AM CDT
2014-10-20
Cushing, Oklahoma 116 miles 2.5 10:20 AM CDT
2014-10-20
Minimum magnitude displayed is 2.5.

Coastal Water Temperatures

Place Temperature
No Stations Reporting

Nearby Weather Stations